Latest Coastal Weather Observations for Gannett Cay

IDQ60701

Issued at 3:51 pm EST Monday 2 May 2016 (issued every 10 minutes, with the page automatically refreshed every 10 minutes)

About coastal observations | Map of coastal stations | Coastal observations for QLD | Marine services | Other Formats
Station Details ID: 200831 Name: GANNET CAY Lat: -21.98 Lon: 152.47 Height: 2.3 m
Data from the previous 72 hours. | See also: Recent months for locations in Queensland
Date/Time
EST
Temp

°C
Wind Pressure Rain
since 9am
mm
Weather Cloud Vis
km
Sea
Height
m
Swell
Dir
 
Speed
knots
Gust
knots
hPa Trend Height
m
Period
s
Dir
02/03:30pm 27.0 S 4 5 1012.9 - - - - - - - - -
02/03:29pm 26.9 S 4 - 1013.0 - - - - - - - - -
02/03:00pm 25.7 S 4 6 1012.8 - - - - - - - - -
02/02:30pm 25.9 S 8 9 1012.9 - - - - - - - - -
02/02:29pm 26.0 S 8 - 1013.1 - - - - - - - - -
02/02:00pm 26.9 WNW 3 3 1013.2 - - - - - - - - -
02/01:30pm 26.6 WSW 2 4 1013.5 - - - - - - - - -
02/01:29pm 26.5 WSW 3 - 1013.6 - - - - - - - - -
02/01:00pm 26.7 NNW 3 4 1013.7 - - - - - - - - -
02/12:30pm 26.9 N 3 4 1014.0 - - - - - - - - -
02/12:29pm 26.8 N 3 - 1014.2 - - - - - - - - -
02/12:00pm 27.2 NNE 3 4 1014.5 - - - - - - - - -
02/11:30am 26.7 NNE 3 5 1014.9 - - - - - - - - -
02/11:29am 26.6 NNE 3 - 1015.0 - - - - - - - - -
02/11:00am 26.6 NE 4 5 1015.2 - - - - - - - - -
02/10:30am 26.5 NE 4 5 1015.7 - - - - - - - - -
02/10:29am 26.5 NE 3 - 1015.8 - - - - - - - - -
02/10:00am 26.6 NNE 6 7 1016.1 - - - - - - - - -
02/09:30am 26.2 NE 6 7 1016.2 - - - - - - - - -
02/09:29am 26.2 NE 6 - 1016.3 - - - - - - - - -
02/09:00am 26.3 NE 5 6 1016.1 - - - - - - - - -
02/08:30am 26.3 ENE 6 7 1015.9 - - - - - - - - -
02/08:29am 26.3 NE 6 - 1016.0 - - - - - - - - -
02/08:00am 26.4 NE 6 7 1015.8 - - - - - - - - -
02/07:30am 26.3 ESE 5 6 1015.7 - - - - - - - - -
02/07:29am 26.2 ESE 5 - 1015.8 - - - - - - - - -
02/07:00am 26.5 SE 4 5 1015.4 - - - - - - - - -
02/06:30am 25.6 SE 3 4 1015.1 - - - - - - - - -
02/06:29am 25.6 SE 3 - 1015.2 - - - - - - - - -
02/06:00am 25.4 CALM 0 0 1014.7 - - - - - - - - -
02/05:30am 25.4 NE 2 4 1014.2 - - - - - - - - -
02/05:29am 25.4 NE 1 - 1014.3 - - - - - - - - -
02/05:00am 25.4 CALM 0 0 1013.9 - - - - - - - - -
02/04:30am 25.8 N 1 4 1013.6 - - - - - - - - -
02/04:29am 25.8 N 1 - 1013.7 - - - - - - - - -
02/04:00am 25.6 CALM 0 0 1013.5 - - - - - - - - -
02/03:30am 25.7 NNE 3 4 1013.6 - - - - - - - - -
02/03:29am 25.7 NNE 3 - 1013.7 - - - - - - - - -
02/03:00am 25.7 NNE 4 6 1013.6 - - - - - - - - -
02/02:30am 25.7 NE 6 7 1013.9 - - - - - - - - -
02/02:29am 25.7 NE 6 - 1014.0 - - - - - - - - -
02/02:00am 25.5 NE 6 7 1014.4 - - - - - - - - -
02/01:30am 25.8 ENE 6 8 1014.6 - - - - - - - - -
02/01:29am 25.7 ENE 6 - 1014.7 - - - - - - - - -
02/01:00am 25.7 ENE 8 9 1014.9 - - - - - - - - -
02/12:30am 25.5 ENE 7 9 1015.2 - - - - - - - - -
02/12:29am 25.5 ENE 7 - 1015.3 - - - - - - - - -
02/12:00am 25.5 ENE 7 8 1015.4 - - - - - - - - -
 
Date/Time
EST
Temp

°C
Wind Pressure Rain
since 9am
mm
Weather Cloud Vis
km
Sea
Height
m
Swell
Dir
 
Speed
knots
Gust
knots
hPa Trend Height
m
Period
s
Dir
01/11:30pm 25.7 ENE 6 7 1015.9 - - - - - - - - -
01/11:29pm 25.7 ENE 6 - 1016.0 - - - - - - - - -
01/11:00pm 25.8 ENE 5 5 1016.1 - - - - - - - - -
01/10:30pm 25.5 NE 6 6 1016.3 - - - - - - - - -
01/10:29pm 25.4 NE 6 - 1016.4 - - - - - - - - -
01/10:00pm 25.4 NE 7 8 1016.5 - - - - - - - - -
01/09:30pm 25.6 ENE 6 8 1016.5 - - - - - - - - -
01/09:29pm 25.6 ENE 6 - 1016.6 - - - - - - - - -
01/09:00pm 25.6 ENE 8 9 1016.8 - - - - - - - - -
01/08:30pm 25.9 ENE 6 6 1016.8 - - - - - - - - -
01/08:29pm 26.0 ENE 6 - 1016.9 - - - - - - - - -
01/08:00pm 25.5 E 7 9 1016.6 - - - - - - - - -
01/07:30pm 25.4 E 9 11 1016.5 - - - - - - - - -
01/07:29pm 25.4 E 9 - 1016.6 - - - - - - - - -
01/07:00pm 25.3 SE 10 12 1016.3 - - - - - - - - -
01/06:30pm 25.5 ESE 8 11 1016.1 - - - - - - - - -
01/06:29pm 25.5 ESE 8 - 1016.2 - - - - - - - - -
01/06:00pm 25.0 ESE 7 8 1015.5 - - - - - - - - -
01/05:30pm 24.9 SSE 4 5 1015.5 - - - - - - - - -
01/05:29pm 25.0 SSE 4 - 1015.6 - - - - - - - - -
01/05:00pm 24.0 ESE 7 9 1015.3 - - - - - - - - -
01/04:30pm 25.8 E 11 13 1015.0 - - - - - - - - -
01/04:29pm 26.3 SE 7 - 1015.1 - - - - - - - - -
01/04:00pm 26.8 S 6 7 1014.7 - - - - - - - - -
01/03:30pm 27.9 SSE 5 7 1014.5 - - - - - - - - -
01/03:29pm 28.1 SSE 5 - 1014.6 - - - - - - - - -
01/03:00pm 28.8 NE 3 5 1014.4 - - - - - - - - -
01/02:30pm 28.4 E 4 5 1014.2 - - - - - - - - -
01/02:29pm 28.4 E 4 - 1014.3 - - - - - - - - -
01/02:00pm 28.7 NNE 3 4 1014.4 - - - - - - - - -
01/01:30pm 27.9 E 4 5 1014.5 - - - - - - - - -
01/01:29pm 28.1 E 4 - 1014.6 - - - - - - - - -
01/01:00pm 27.8 ENE 4 5 1014.7 - - - - - - - - -
01/12:30pm 27.5 E 5 6 1015.2 - - - - - - - - -
01/12:29pm 27.5 E 5 - 1015.3 - - - - - - - - -
01/12:00pm 27.5 E 6 7 1015.6 - - - - - - - - -
01/11:30am 27.2 ENE 6 7 1016.0 - - - - - - - - -
01/11:29am 27.1 ENE 6 - 1016.1 - - - - - - - - -
01/11:00am 27.2 E 7 9 1016.4 - - - - - - - - -
01/10:30am 27.4 ENE 4 5 1016.8 - - - - - - - - -
01/10:29am 27.2 ENE 4 - 1016.9 - - - - - - - - -
01/10:00am 28.4 ENE 1 3 1017.3 - - - - - - - - -
01/09:30am 26.9 ENE 1 5 1017.5 - - - - - - - - -
01/09:29am 26.8 ENE 1 - 1017.6 - - - - - - - - -
01/09:00am 26.0 SSE 4 6 1017.7 - - - - - - - - -
01/08:30am 26.7 ENE 3 4 1017.4 - - - - - - - - -
01/08:29am 26.8 ENE 3 - 1017.5 - - - - - - - - -
01/08:00am 27.8 ENE 1 3 1017.4 - - - - - - - - -
01/07:30am 27.3 ENE 1 3 1017.2 - - - - - - - - -
01/07:29am 27.4 ENE 1 - 1017.3 - - - - - - - - -
01/07:00am 26.5 ENE 2 4 1017.0 - - - - - - - - -
01/06:30am 25.8 ENE 4 4 1016.7 - - - - - - - - -
01/06:29am 25.9 ENE 4 - 1016.8 - - - - - - - - -
01/06:00am 25.8 ENE 4 5 1016.5 - - - - - - - - -
01/05:30am 25.9 ENE 4 5 1016.3 - - - - - - - - -
01/05:29am 25.9 ENE 4 - 1016.4 - - - - - - - - -
01/05:00am 25.8 ENE 3 4 1016.1 - - - - - - - - -
01/04:30am 25.8 NE 5 6 1015.8 - - - - - - - - -
01/04:29am 25.8 NE 5 - 1015.9 - - - - - - - - -
01/04:00am 25.8 NE 6 7 1015.6 - - - - - - - - -
01/03:30am 25.9 ENE 6 7 1015.7 - - - - - - - - -
01/03:29am 25.9 ENE 6 - 1015.8 - - - - - - - - -
01/03:00am 25.9 ENE 6 6 1015.7 - - - - - - - - -
01/02:30am 25.9 ENE 7 7 1015.8 - - - - - - - - -
01/02:29am 25.9 ENE 6 - 1015.9 - - - - - - - - -
01/02:00am 25.8 E 7 8 1015.9 - - - - - - - - -
01/01:30am 25.8 E 7 8 1016.0 - - - - - - - - -
01/01:29am 25.8 E 7 - 1016.1 - - - - - - - - -
01/01:00am 25.9 E 7 8 1016.3 - - - - - - - - -
01/12:30am 25.9 E 8 8 1016.4 - - - - - - - - -
01/12:29am 25.9 E 8 - 1016.5 - - - - - - - - -
01/12:00am 25.9 E 8 9 1016.5 - - - - - - - - -
 
Date/Time
EST
Temp

°C
Wind Pressure Rain
since 9am
mm
Weather Cloud Vis
km
Sea
Height
m
Swell
Dir
 
Speed
knots
Gust
knots
hPa Trend Height
m
Period
s
Dir
30/11:30pm 25.9 E 9 10 1016.7 - - - - - - - - -
30/11:29pm 26.0 E 9 - 1016.8 - - - - - - - - -
30/11:00pm 26.1 E 9 11 1017.0 - - - - - - - - -
30/10:30pm 26.1 E 9 9 1017.0 - - - - - - - - -
30/10:29pm 26.0 E 9 - 1017.2 - - - - - - - - -
30/10:00pm 26.2 E 9 11 1017.1 - - - - - - - - -
30/09:30pm 26.0 ESE 10 11 1017.2 - - - - - - - - -
30/09:29pm 26.0 ESE 10 - 1017.3 - - - - - - - - -
30/09:00pm 25.9 ESE 10 11 1017.0 - - - - - - - - -
30/08:30pm 26.0 E 11 11 1016.8 - - - - - - - - -
30/08:29pm 26.0 E 11 - 1016.9 - - - - - - - - -
30/08:00pm 26.1 E 11 12 1016.6 - - - - - - - - -
30/07:30pm 25.9 ESE 11 13 1016.4 - - - - - - - - -
30/07:29pm 26.0 ESE 11 - 1016.5 - - - - - - - - -
30/07:00pm 25.9 ESE 11 13 1016.3 - - - - - - - - -
30/06:30pm 25.9 ESE 12 14 1016.0 - - - - - - - - -
30/06:29pm 26.0 ESE 12 - 1016.1 - - - - - - - - -
30/06:00pm 25.9 SE 12 14 1016.0 - - - - - - - - -
30/05:30pm 26.1 SE 11 13 1015.9 - - - - - - - - -
30/05:29pm 26.1 SE 12 - 1015.9 - - - - - - - - -
30/05:00pm 26.1 SE 11 13 1015.7 - - - - - - - - -
30/04:30pm 26.5 SE 11 13 1015.4 - - - - - - - - -
30/04:29pm 26.5 SE 11 - 1015.5 - - - - - - - - -
30/04:00pm 26.6 SE 11 13 1015.0 - - - - - - - - -
30/03:30pm 26.6 SE 12 13 1014.9 - - - - - - - - -
30/03:29pm 26.7 SE 12 - 1015.0 - - - - - - - - -
30/03:00pm 26.7 SE 12 13 1014.9 - - - - - - - - -
30/02:30pm 27.0 SE 10 11 1015.0 - - - - - - - - -
30/02:29pm 26.9 SE 10 - 1015.1 - - - - - - - - -
30/02:00pm 26.9 SE 10 11 1015.1 - - - - - - - - -
30/01:30pm 26.8 SE 11 12 1015.3 - - - - - - - - -
30/01:29pm 26.7 SE 11 - 1015.4 - - - - - - - - -
30/01:00pm 26.8 SE 11 12 1015.6 - - - - - - - - -
30/12:30pm 26.8 SSE 11 12 1016.1 - - - - - - - - -
30/12:29pm 26.8 SSE 11 - 1016.2 - - - - - - - - -
30/12:00pm 26.7 SSE 11 11 1016.6 - - - - - - - - -
30/11:30am 26.9 SE 11 12 1017.0 - - - - - - - - -
30/11:29am 26.8 SE 11 - 1017.1 - - - - - - - - -
30/11:00am 26.8 SSE 11 12 1017.2 - - - - - - - - -
30/10:30am 26.7 SE 10 11 1017.5 - - - - - - - - -
30/10:29am 26.7 SE 10 - 1017.6 - - - - - - - - -
30/10:00am 26.6 SE 11 12 1017.8 - - - - - - - - -
30/09:30am 26.4 SE 11 14 1018.0 - - - - - - - - -
30/09:29am 26.5 SE 11 - 1018.1 - - - - - - - - -
30/09:00am 26.5 SE 9 11 1017.9 - - - - - - - - -
30/08:30am 26.4 SE 10 12 1017.9 - - - - - - - - -
30/08:29am 26.4 SE 10 - 1017.9 - - - - - - - - -
30/08:00am 26.6 E 10 11 1017.7 - - - - - - - - -
30/07:30am 26.4 ESE 10 11 1017.5 - - - - - - - - -
30/07:29am 26.3 ESE 10 - 1017.6 - - - - - - - - -
30/07:00am 26.0 ESE 9 11 1017.2 - - - - - - - - -
30/06:30am 25.8 ESE 9 11 1017.0 - - - - - - - - -
30/06:29am 25.8 ESE 9 - 1017.1 - - - - - - - - -
30/06:00am 25.7 ESE 10 11 1016.6 - - - - - - - - -
30/05:30am 25.7 ESE 11 12 1016.3 - - - - - - - - -
30/05:29am 25.7 ESE 11 - 1016.4 - - - - - - - - -
30/05:00am 25.7 ESE 11 12 1016.2 - - - - - - - - -
30/04:30am 25.6 E 10 12 1016.0 - - - - - - - - -
30/04:29am 25.6 E 10 - 1016.1 - - - - - - - - -
30/04:00am 25.6 ESE 12 14 1016.0 - - - - - - - - -
30/03:30am 25.8 ESE 13 15 1016.0 - - - - - - - - -
30/03:29am 25.9 ESE 13 - 1016.1 - - - - - - - - -
30/03:00am 25.8 ESE 14 15 1016.1 - - - - - - - - -
30/02:30am 26.0 ESE 12 14 1016.3 - - - - - - - - -
30/02:29am 26.0 ESE 12 - 1016.4 - - - - - - - - -
30/02:00am 25.9 ESE 13 15 1016.6 - - - - - - - - -
30/01:30am 25.8 ESE 12 13 1016.7 - - - - - - - - -
30/01:29am 25.8 ESE 12 - 1016.8 - - - - - - - - -
30/01:00am 25.5 SE 11 13 1016.9 - - - - - - - - -
30/12:30am 25.1 ESE 13 15 1017.2 - - - - - - - - -
30/12:29am 25.0 ESE 13 - 1017.3 - - - - - - - - -
30/12:00am 25.3 ESE 15 18 1017.4 - - - - - - - - -
 
Date/Time
EST
Temp

°C
Wind Pressure Rain
since 9am
mm
Weather Cloud Vis
km
Sea
Height
m
Swell
Dir
 
Speed
knots
Gust
knots
hPa Trend Height
m
Period
s
Dir
29/11:30pm 25.5 ESE 13 15 1017.6 - - - - - - - - -
29/11:29pm 25.5 ESE 13 - 1017.7 - - - - - - - - -
29/11:00pm 25.1 SE 14 17 1017.9 - - - - - - - - -
29/10:30pm 25.1 ESE 13 16 1018.0 - - - - - - - - -
29/10:29pm 24.9 ESE 13 - 1018.1 - - - - - - - - -
29/10:00pm 24.8 ESE 15 20 1018.1 - - - - - - - - -
29/09:30pm 25.8 SE 15 18 1018.0 - - - - - - - - -
29/09:29pm 25.7 SE 15 - 1018.1 - - - - - - - - -
29/09:00pm 25.7 ESE 15 17 1018.0 - - - - - - - - -
29/08:30pm 26.0 ESE 17 20 1017.8 - - - - - - - - -
29/08:29pm 26.1 ESE 17 - 1017.9 - - - - - - - - -
29/08:00pm 26.0 ESE 18 20 1017.7 - - - - - - - - -
29/07:30pm 25.9 SE 17 19 1017.4 - - - - - - - - -
29/07:29pm 25.8 SE 17 - 1017.5 - - - - - - - - -
29/07:00pm 26.2 ESE 17 19 1017.0 - - - - - - - - -
29/06:30pm 26.0 ESE 17 19 1016.7 - - - - - - - - -
29/06:29pm 26.1 ESE 17 - 1016.8 - - - - - - - - -
29/06:00pm 25.8 ESE 16 19 1016.4 - - - - - - - - -
29/05:30pm 26.2 ESE 18 20 1016.1 - - - - - - - - -
29/05:29pm 26.2 ESE 18 - 1016.2 - - - - - - - - -
29/05:00pm 26.0 ESE 16 18 1015.8 - - - - - - - - -
29/04:30pm 26.5 ESE 16 18 1015.6 - - - - - - - - -
29/04:29pm 26.5 ESE 16 - 1015.7 - - - - - - - - -
29/04:00pm 26.4 ESE 16 18 1015.4 - - - - - - - - -

Other Formats:

Comma delimited format used in spreadsheet applications
http://www.bom.gov.au/fwo/IDQ60701/IDQ60701.94379.axf

JavaScript Object Notation format (JSON) in row-major order
http://www.bom.gov.au/fwo/IDQ60701/IDQ60701.94379.json